createdAt,value
2019-01-11T00:06:47.728Z,1020.4
2019-01-11T00:17:39.682Z,1020.3
2019-01-11T00:29:16.408Z,1020.1
2019-01-11T00:40:19.957Z,1020.1
2019-01-11T00:51:42.121Z,1020.0
2019-01-11T01:02:38.407Z,1019.9
2019-01-11T01:13:06.888Z,1019.9
2019-01-11T01:24:09.632Z,1019.8
2019-01-11T01:35:29.486Z,1019.8
2019-01-11T01:48:02.771Z,1019.5
2019-01-11T01:58:58.847Z,1019.5
2019-01-11T02:09:51.638Z,1019.5
2019-01-11T02:20:43.295Z,1019.4
2019-01-11T02:31:33.912Z,1019.3
2019-01-11T02:43:32.597Z,1019.1
2019-01-11T02:54:35.192Z,1019.1
2019-01-11T03:05:45.321Z,1018.9
2019-01-11T03:17:11.703Z,1018.8
2019-01-11T03:28:00.866Z,1018.8
2019-01-11T03:38:40.091Z,1018.9
2019-01-11T03:48:58.392Z,1018.9
2019-01-11T04:00:08.480Z,1018.7
2019-01-11T04:10:58.116Z,1018.7
2019-01-11T04:21:17.490Z,1018.5
2019-01-11T04:31:33.927Z,1018.5
2019-01-11T04:42:29.692Z,1018.5
2019-01-11T04:53:20.374Z,1018.4
2019-01-11T05:03:40.464Z,1018.3
2019-01-11T05:13:59.766Z,1018.3
2019-01-11T05:24:19.515Z,1018.3
2019-01-11T05:35:47.114Z,1018.3
2019-01-11T05:47:17.469Z,1018.3
2019-01-11T05:58:52.183Z,1018.1
2019-01-11T06:09:49.537Z,1017.9
2019-01-11T06:20:43.792Z,1018.1
2019-01-11T06:31:43.963Z,1018.3
2019-01-11T06:42:36.126Z,1018.4
2019-01-11T06:54:38.086Z,1018.2
2019-01-11T07:04:52.257Z,1018.3
2019-01-11T07:15:44.706Z,1018.3
2019-01-11T07:26:36.509Z,1018.3
2019-01-11T07:36:56.230Z,1018.3
2019-01-11T07:47:14.294Z,1018.4
2019-01-11T07:58:05.023Z,1018.4
2019-01-11T08:08:53.796Z,1018.4
2019-01-11T08:19:09.259Z,1018.3
2019-01-11T08:29:58.325Z,1018.2
2019-01-11T08:40:55.057Z,1018.2
2019-01-11T08:51:44.296Z,1018.0
2019-01-11T09:02:42.714Z,1018.0
2019-01-11T09:13:46.800Z,1018.1
2019-01-11T09:24:44.546Z,1018.1
2019-01-11T09:35:39.119Z,1018.0
2019-01-11T09:45:58.455Z,1018.1
2019-01-11T09:56:46.932Z,1018.0
2019-01-11T10:07:55.316Z,1018.0
2019-01-11T10:18:49.448Z,1017.9
2019-01-11T10:29:54.574Z,1017.9
2019-01-11T10:40:45.079Z,1017.9
2019-01-11T10:51:10.415Z,1017.8
2019-01-11T11:01:56.864Z,1017.7
2019-01-11T11:15:20.400Z,1017.8
2019-01-11T11:26:17.037Z,1017.6
2019-01-11T11:37:05.546Z,1017.6
2019-01-11T11:47:23.624Z,1017.4
2019-01-11T11:58:11.450Z,1017.3
2019-01-11T12:08:30.593Z,1017.2
2019-01-11T12:19:18.004Z,1017.1
2019-01-11T12:29:48.117Z,1017.1
2019-01-11T12:40:05.844Z,1016.9
2019-01-11T12:50:51.900Z,1016.8
2019-01-11T13:01:41.232Z,1016.7
2019-01-11T13:12:09.964Z,1016.7
2019-01-11T13:23:04.857Z,1016.5
2019-01-11T13:33:23.873Z,1016.6
2019-01-11T13:44:21.756Z,1016.5
2019-01-11T13:55:18.290Z,1016.6
2019-01-11T14:05:35.918Z,1016.6
2019-01-11T14:15:56.751Z,1016.7
2019-01-11T14:26:16.621Z,1016.7
2019-01-11T14:36:34.286Z,1016.6
2019-01-11T14:47:22.838Z,1016.7
2019-01-11T14:58:20.416Z,1016.6
2019-01-11T15:09:13.809Z,1016.6
2019-01-11T15:20:01.184Z,1016.6
2019-01-11T15:30:49.146Z,1016.5
2019-01-11T15:41:39.556Z,1016.7
2019-01-11T16:11:41.654Z,1016.8
2019-01-11T16:22:28.825Z,1016.8
2019-01-11T16:33:14.522Z,1016.9
2019-01-11T16:44:11.189Z,1016.7
2019-01-11T16:54:27.688Z,1016.7
2019-01-11T17:05:18.539Z,1016.8
2019-01-11T17:16:06.595Z,1016.9
2019-01-11T17:26:55.993Z,1016.9
2019-01-11T17:37:45.661Z,1016.9
2019-01-11T17:48:41.537Z,1017.1
2019-01-11T17:59:27.080Z,1017.1
2019-01-11T18:10:13.981Z,1017.2
2019-01-11T18:20:29.275Z,1017.2
2019-01-11T18:31:19.286Z,1017.3
2019-01-11T18:42:24.625Z,1017.4
2019-01-11T18:53:19.267Z,1017.4
2019-01-11T19:04:10.754Z,1017.5
2019-01-11T19:15:19.170Z,1017.5
2019-01-11T19:26:17.064Z,1017.5
2019-01-11T19:37:17.761Z,1017.5
2019-01-11T19:48:08.641Z,1017.4
2019-01-11T20:02:59.968Z,1017.4
2019-01-11T20:32:15.604Z,1017.5
2019-01-11T21:45:25.626Z,1017.9
2019-01-11T21:55:46.490Z,1017.9
2019-01-11T22:06:07.023Z,1017.7
2019-01-11T22:16:25.286Z,1017.7
2019-01-11T22:26:44.016Z,1017.7
2019-01-11T22:37:07.368Z,1017.7
2019-01-11T22:47:20.732Z,1017.6
2019-01-11T22:57:38.285Z,1017.7
2019-01-11T23:07:52.253Z,1017.7
2019-01-11T23:18:40.335Z,1017.8
2019-01-11T23:28:56.833Z,1017.8
2019-01-11T23:39:09.963Z,1017.7
2019-01-11T23:49:58.706Z,1017.6
